PWSweather.com
Personal Weather Stations
Station Observations
KCOGRAND2
Redlands, Southcamp Road & Dakota Circle, Grand Junction, CO 81507

Redlands, Southcamp Road & Dakota CircleGrand Junction, CO 81507

Lat: 39.055, Lon: -108.637

Elevation: 4870

Station Type: RadioShack WX200

High Low Average
Temperature 88.7°F31.5°C 60.8°F16.0°C 73.8°F23.2°C
Dew Point 34.3°F1.3°C 20.3°F-6.5°C 30.4°F-0.9°C
Winds 7.0 mph 11.3 kmh Calm Calm 4.0 mph S6.4 kmh S
Wind Gusts 12.5 mph20.1 kmh -- 7.0 mph11.3 kmh
Humidity 36% 13% 27%
Pressure 25.13 in851.0 mb 24.98 in845.9 mb -
Precipitation 0.00 in0.0 mm - -
Hour Temp Dew Point Humidity Winds Wind Gusts Pressure Precip Precip Rate Daily Precip Total
12:01 AM 69.1°F20.6°C 22.5°F-5.3°C 17% Calm Calm 4.0 mph6.4 kmh 25.10 in850.0 mb 0.00 in0.0 mm 0.00 in/hr0.0 mm/hr 0.00 in0.0 mm
12:06 AM 69.1°F20.6°C 25.2°F-3.8°C 19% Calm Calm 3.6 mph5.8 kmh 25.10 in850.0 mb 0.00 in0.0 mm 0.00 in/hr0.0 mm/hr 0.00 in0.0 mm
12:11 AM 67.8°F19.9°C 27.5°F-2.5°C 22% 1.0 mph SE1.6 kmh SE 4.5 mph7.2 kmh 25.10 in850.0 mb 0.00 in0.0 mm 0.00 in/hr0.0 mm/hr 0.00 in0.0 mm
12:16 AM 67.1°F19.5°C 28.0°F-2.2°C 23% 2.0 mph SE3.2 kmh SE 4.9 mph7.9 kmh 25.10 in850.0 mb 0.00 in0.0 mm 0.00 in/hr0.0 mm/hr 0.00 in0.0 mm
12:21 AM 66.7°F19.3°C 28.8°F-1.8°C 24% 2.0 mph E3.2 kmh E 4.9 mph7.9 kmh 25.10 in850.0 mb 0.00 in0.0 mm 0.00 in/hr0.0 mm/hr 0.00 in0.0 mm
12:26 AM 66.7°F19.3°C 28.8°F-1.8°C 24% 2.0 mph E3.2 kmh E 4.5 mph7.2 kmh 25.10 in850.0 mb 0.00 in0.0 mm 0.00 in/hr0.0 mm/hr 0.00 in0.0 mm
12:31 AM 66.7°F19.3°C 29.8°F-1.2°C 25% 2.0 mph E3.2 kmh E 3.6 mph5.8 kmh 25.10 in850.0 mb 0.00 in0.0 mm 0.00 in/hr0.0 mm/hr 0.00 in0.0 mm
12:36 AM 66.0°F18.9°C 31.1°F-0.5°C 27% 1.0 mph E1.6 kmh E 3.1 mph5.0 kmh 25.10 in850.0 mb 0.00 in0.0 mm 0.00 in/hr0.0 mm/hr 0.00 in0.0 mm
12:41 AM 65.5°F18.6°C 31.5°F-0.3°C 28% Calm Calm -- 25.10 in850.0 mb 0.00 in0.0 mm 0.00 in/hr0.0 mm/hr 0.00 in0.0 mm
12:46 AM 65.7°F18.7°C 31.6°F-0.2°C 28% Calm Calm -- 25.10 in850.0 mb 0.00 in0.0 mm 0.00 in/hr0.0 mm/hr 0.00 in0.0 mm
12:51 AM 66.0°F18.9°C 31.1°F-0.5°C 27% Calm Calm -- 25.10 in850.0 mb 0.00 in0.0 mm 0.00 in/hr0.0 mm/hr 0.00 in0.0 mm
12:56 AM 66.7°F19.3°C 30.7°F-0.7°C 26% Calm Calm 2.7 mph4.3 kmh 25.10 in850.0 mb 0.00 in0.0 mm 0.00 in/hr0.0 mm/hr 0.00 in0.0 mm
01:01 AM 66.0°F18.9°C 30.2°F-1.0°C 26% 1.0 mph E1.6 kmh E 3.6 mph5.8 kmh 25.10 in850.0 mb 0.00 in0.0 mm 0.00 in/hr0.0 mm/hr 0.00 in0.0 mm
01:06 AM 66.2°F19.0°C 30.4°F-0.9°C 26% 2.0 mph E3.2 kmh E 4.9 mph7.9 kmh 25.10 in850.0 mb 0.00 in0.0 mm 0.00 in/hr0.0 mm/hr 0.00 in0.0 mm
01:11 AM 66.2°F19.0°C 29.3°F-1.5°C 25% 2.0 mph E3.2 kmh E 6.3 mph10.1 kmh 25.10 in850.0 mb 0.00 in0.0 mm 0.00 in/hr0.0 mm/hr 0.00 in0.0 mm
01:16 AM 67.8°F19.9°C 28.6°F-1.9°C 23% 2.0 mph ESE3.2 kmh ESE 4.9 mph7.9 kmh 25.10 in850.0 mb 0.00 in0.0 mm 0.00 in/hr0.0 mm/hr 0.00 in0.0 mm
01:21 AM 67.3°F19.6°C 28.2°F-2.1°C 23% 3.0 mph ESE4.8 kmh ESE 6.9 mph11.1 kmh 25.10 in850.0 mb 0.00 in0.0 mm 0.00 in/hr0.0 mm/hr 0.00 in0.0 mm
01:26 AM 66.4°F19.1°C 28.6°F-1.9°C 24% 4.0 mph ENE6.4 kmh ENE 6.3 mph10.1 kmh 25.10 in850.0 mb 0.00 in0.0 mm 0.00 in/hr0.0 mm/hr 0.00 in0.0 mm
01:31 AM 66.7°F19.3°C 27.7°F-2.4°C 23% 4.0 mph NE6.4 kmh NE 5.8 mph9.3 kmh 25.10 in850.0 mb 0.00 in0.0 mm 0.00 in/hr0.0 mm/hr 0.00 in0.0 mm
01:36 AM 66.4°F19.1°C 28.6°F-1.9°C 24% 2.0 mph NNE3.2 kmh NNE 5.4 mph8.7 kmh 25.10 in850.0 mb 0.00 in0.0 mm 0.00 in/hr0.0 mm/hr 0.00 in0.0 mm
01:41 AM 65.5°F18.6°C 27.7°F-2.4°C 24% 1.0 mph NNE1.6 kmh NNE 4.0 mph6.4 kmh 25.10 in850.0 mb 0.00 in0.0 mm 0.00 in/hr0.0 mm/hr 0.00 in0.0 mm
01:46 AM 65.5°F18.6°C 27.7°F-2.4°C 24% 2.0 mph NNE3.2 kmh NNE 4.5 mph7.2 kmh 25.10 in850.0 mb 0.00 in0.0 mm 0.00 in/hr0.0 mm/hr 0.00 in0.0 mm
01:51 AM 66.2°F19.0°C 28.4°F-2.0°C 24% 3.0 mph N4.8 kmh N 4.5 mph7.2 kmh 25.10 in850.0 mb 0.00 in0.0 mm 0.00 in/hr0.0 mm/hr 0.00 in0.0 mm
01:56 AM 65.5°F18.6°C 27.7°F-2.4°C 24% 2.0 mph N3.2 kmh N 5.4 mph8.7 kmh 25.10 in850.0 mb 0.00 in0.0 mm 0.00 in/hr0.0 mm/hr 0.00 in0.0 mm
02:01 AM 64.4°F18.0°C 27.9°F-2.3°C 25% 2.0 mph N3.2 kmh N 4.5 mph7.2 kmh 25.10 in850.0 mb 0.00 in0.0 mm 0.00 in/hr0.0 mm/hr 0.00 in0.0 mm
02:06 AM 63.5°F17.5°C 28.9°F-1.7°C 27% 1.0 mph NNE1.6 kmh NNE -- 25.10 in850.0 mb 0.00 in0.0 mm 0.00 in/hr0.0 mm/hr 0.00 in0.0 mm
02:11 AM 63.3°F17.4°C 30.6°F-0.8°C 29% Calm Calm -- 25.10 in850.0 mb 0.00 in0.0 mm 0.00 in/hr0.0 mm/hr 0.00 in0.0 mm
02:16 AM 62.6°F17.0°C 30.7°F-0.7°C 30% Calm Calm 2.7 mph4.3 kmh 25.10 in850.0 mb 0.00 in0.0 mm 0.00 in/hr0.0 mm/hr 0.00 in0.0 mm
02:21 AM 63.5°F17.5°C 32.4°F0.2°C 31% Calm Calm 3.1 mph5.0 kmh 25.10 in850.0 mb 0.00 in0.0 mm 0.00 in/hr0.0 mm/hr 0.00 in0.0 mm
02:26 AM 63.9°F17.7°C 32.7°F0.4°C 31% 1.0 mph NNE1.6 kmh NNE 4.0 mph6.4 kmh 25.10 in850.0 mb 0.00 in0.0 mm 0.00 in/hr0.0 mm/hr 0.00 in0.0 mm
02:31 AM 63.0°F17.2°C 33.4°F0.8°C 33% 1.0 mph NNE1.6 kmh NNE 4.5 mph7.2 kmh 25.10 in850.0 mb 0.00 in0.0 mm 0.00 in/hr0.0 mm/hr 0.00 in0.0 mm
02:36 AM 62.4°F16.9°C 32.9°F0.5°C 33% 2.0 mph NE3.2 kmh NE 3.6 mph5.8 kmh 25.10 in850.0 mb 0.00 in0.0 mm 0.00 in/hr0.0 mm/hr 0.00 in0.0 mm
02:41 AM 61.9°F16.6°C 33.3°F0.7°C 34% 1.0 mph NE1.6 kmh NE 3.1 mph5.0 kmh 25.10 in850.0 mb 0.00 in0.0 mm 0.00 in/hr0.0 mm/hr 0.00 in0.0 mm
02:46 AM 61.5°F16.4°C 32.9°F0.5°C 34% 1.0 mph NE1.6 kmh NE 3.6 mph5.8 kmh 25.10 in850.0 mb 0.00 in0.0 mm 0.00 in/hr0.0 mm/hr 0.00 in0.0 mm
02:51 AM 61.7°F16.5°C 33.1°F0.6°C 34% 1.0 mph NE1.6 kmh NE 3.1 mph5.0 kmh 25.10 in850.0 mb 0.00 in0.0 mm 0.00 in/hr0.0 mm/hr 0.00 in0.0 mm
02:56 AM 62.4°F16.9°C 32.9°F0.5°C 33% Calm Calm 3.1 mph5.0 kmh 25.10 in850.0 mb 0.00 in0.0 mm 0.00 in/hr0.0 mm/hr 0.00 in0.0 mm
03:01 AM 64.2°F17.9°C 30.4°F-0.9°C 28% Calm Calm 3.1 mph5.0 kmh 25.10 in850.0 mb 0.00 in0.0 mm 0.00 in/hr0.0 mm/hr 0.00 in0.0 mm
03:06 AM 64.6°F18.1°C 29.8°F-1.2°C 27% Calm Calm -- 25.10 in850.0 mb 0.00 in0.0 mm 0.00 in/hr0.0 mm/hr 0.00 in0.0 mm
03:11 AM 64.8°F18.2°C 29.1°F-1.6°C 26% Calm Calm 5.8 mph9.3 kmh 25.10 in850.0 mb 0.00 in0.0 mm 0.00 in/hr0.0 mm/hr 0.00 in0.0 mm
03:16 AM 65.3°F18.5°C 29.5°F-1.4°C 26% 2.0 mph N3.2 kmh N 5.8 mph9.3 kmh 25.10 in850.0 mb 0.00 in0.0 mm 0.00 in/hr0.0 mm/hr 0.00 in0.0 mm
03:21 AM 65.1°F18.4°C 28.4°F-2.0°C 25% 2.0 mph N3.2 kmh N 3.6 mph5.8 kmh 25.10 in850.0 mb 0.00 in0.0 mm 0.00 in/hr0.0 mm/hr 0.00 in0.0 mm
03:26 AM 64.4°F18.0°C 31.5°F-0.3°C 29% 1.0 mph NNW1.6 kmh NNW 6.7 mph10.8 kmh 25.10 in850.0 mb 0.00 in0.0 mm 0.00 in/hr0.0 mm/hr 0.00 in0.0 mm
03:31 AM 63.1°F17.3°C 32.0°F0.0°C 31% 3.0 mph N4.8 kmh N 6.3 mph10.1 kmh 25.10 in850.0 mb 0.00 in0.0 mm 0.00 in/hr0.0 mm/hr 0.00 in0.0 mm
03:36 AM 61.9°F16.6°C 32.5°F0.3°C 33% 3.0 mph NNE4.8 kmh NNE 4.5 mph7.2 kmh 25.10 in850.0 mb 0.00 in0.0 mm 0.00 in/hr0.0 mm/hr 0.00 in0.0 mm
03:41 AM 61.2°F16.2°C 32.5°F0.3°C 34% 3.0 mph NNE4.8 kmh NNE 5.4 mph8.7 kmh 25.10 in850.0 mb 0.00 in0.0 mm 0.00 in/hr0.0 mm/hr 0.00 in0.0 mm
03:46 AM 60.8°F16.0°C 32.9°F0.5°C 35% 3.0 mph NNE4.8 kmh NNE 5.4 mph8.7 kmh 25.10 in850.0 mb 0.00 in0.0 mm 0.00 in/hr0.0 mm/hr 0.00 in0.0 mm
03:51 AM 60.8°F16.0°C 33.6°F0.9°C 36% 3.0 mph NNE4.8 kmh NNE 4.9 mph7.9 kmh 25.07 in849.0 mb 0.00 in0.0 mm 0.00 in/hr0.0 mm/hr 0.00 in0.0 mm
03:56 AM 61.3°F16.3°C 34.2°F1.2°C 36% 4.0 mph N6.4 kmh N 6.3 mph10.1 kmh 25.07 in849.0 mb 0.00 in0.0 mm 0.00 in/hr0.0 mm/hr 0.00 in0.0 mm
04:01 AM 63.0°F17.2°C 34.2°F1.2°C 34% 5.0 mph N8.0 kmh N 7.4 mph11.9 kmh 25.07 in849.0 mb 0.00 in0.0 mm 0.00 in/hr0.0 mm/hr 0.00 in0.0 mm
04:06 AM 63.3°F17.4°C 33.8°F1.0°C 33% 4.0 mph NNW6.4 kmh NNW 6.3 mph10.1 kmh 25.07 in849.0 mb 0.00 in0.0 mm 0.00 in/hr0.0 mm/hr 0.00 in0.0 mm
04:11 AM 62.2°F16.8°C 32.7°F0.4°C 33% 4.0 mph N6.4 kmh N 5.4 mph8.7 kmh 25.07 in849.0 mb 0.00 in0.0 mm 0.00 in/hr0.0 mm/hr 0.00 in0.0 mm
04:16 AM 61.7°F16.5°C 33.1°F0.6°C 34% 3.0 mph NNE4.8 kmh NNE 5.4 mph8.7 kmh 25.07 in849.0 mb 0.00 in0.0 mm 0.00 in/hr0.0 mm/hr 0.00 in0.0 mm
04:21 AM 61.5°F16.4°C 32.9°F0.5°C 34% 3.0 mph NE4.8 kmh NE 5.4 mph8.7 kmh 25.10 in850.0 mb 0.00 in0.0 mm 0.00 in/hr0.0 mm/hr 0.00 in0.0 mm
04:26 AM 61.2°F16.2°C 32.5°F0.3°C 34% 2.0 mph NE3.2 kmh NE 5.4 mph8.7 kmh 25.10 in850.0 mb 0.00 in0.0 mm 0.00 in/hr0.0 mm/hr 0.00 in0.0 mm
04:31 AM 61.3°F16.3°C 32.7°F0.4°C 34% 1.0 mph NE1.6 kmh NE 5.4 mph8.7 kmh 25.10 in850.0 mb 0.00 in0.0 mm 0.00 in/hr0.0 mm/hr 0.00 in0.0 mm
04:36 AM 63.3°F17.4°C 33.8°F1.0°C 33% 1.0 mph NNE1.6 kmh NNE 6.7 mph10.8 kmh 25.10 in850.0 mb 0.00 in0.0 mm 0.00 in/hr0.0 mm/hr 0.00 in0.0 mm
04:41 AM 64.8°F18.2°C 31.8°F-0.1°C 29% 3.0 mph NNE4.8 kmh NNE 6.9 mph11.1 kmh 25.10 in850.0 mb 0.00 in0.0 mm 0.00 in/hr0.0 mm/hr 0.00 in0.0 mm
04:46 AM 64.0°F17.8°C 31.1°F-0.5°C 29% 2.0 mph N3.2 kmh N 4.5 mph7.2 kmh 25.10 in850.0 mb 0.00 in0.0 mm 0.00 in/hr0.0 mm/hr 0.00 in0.0 mm
04:51 AM 63.5°F17.5°C 31.5°F-0.3°C 30% 1.0 mph N1.6 kmh N 4.0 mph6.4 kmh 25.10 in850.0 mb 0.00 in0.0 mm 0.00 in/hr0.0 mm/hr 0.00 in0.0 mm
04:56 AM 62.6°F17.0°C 31.5°F-0.3°C 31% Calm Calm 3.1 mph5.0 kmh 25.10 in850.0 mb 0.00 in0.0 mm 0.00 in/hr0.0 mm/hr 0.00 in0.0 mm
05:01 AM 63.5°F17.5°C 32.4°F0.2°C 31% Calm Calm 3.1 mph5.0 kmh 25.10 in850.0 mb 0.00 in0.0 mm 0.00 in/hr0.0 mm/hr 0.00 in0.0 mm
05:06 AM 64.8°F18.2°C 30.9°F-0.6°C 28% 2.0 mph N3.2 kmh N 6.3 mph10.1 kmh 25.10 in850.0 mb 0.00 in0.0 mm 0.00 in/hr0.0 mm/hr 0.00 in0.0 mm
05:11 AM 64.2°F17.9°C 31.3°F-0.4°C 29% 4.0 mph NNW6.4 kmh NNW 6.9 mph11.1 kmh 25.10 in850.0 mb 0.00 in0.0 mm 0.00 in/hr0.0 mm/hr 0.00 in0.0 mm
05:16 AM 63.7°F17.6°C 30.9°F-0.6°C 29% 4.0 mph NNW6.4 kmh NNW 5.8 mph9.3 kmh 25.10 in850.0 mb 0.00 in0.0 mm 0.00 in/hr0.0 mm/hr 0.00 in0.0 mm
05:21 AM 63.0°F17.2°C 31.8°F-0.1°C 31% 4.0 mph N6.4 kmh N 5.8 mph9.3 kmh 25.10 in850.0 mb 0.00 in0.0 mm 0.00 in/hr0.0 mm/hr 0.00 in0.0 mm
05:26 AM 61.9°F16.6°C 33.3°F0.7°C 34% 3.0 mph N4.8 kmh N 4.5 mph7.2 kmh 25.10 in850.0 mb 0.00 in0.0 mm 0.00 in/hr0.0 mm/hr 0.00 in0.0 mm
05:31 AM 61.2°F16.2°C 33.3°F0.7°C 35% 3.0 mph NNE4.8 kmh NNE 4.9 mph7.9 kmh 25.10 in850.0 mb 0.00 in0.0 mm 0.00 in/hr0.0 mm/hr 0.00 in0.0 mm
05:36 AM 62.8°F17.1°C 31.6°F-0.2°C 31% 4.0 mph N6.4 kmh N 6.3 mph10.1 kmh 25.10 in850.0 mb 0.00 in0.0 mm 0.00 in/hr0.0 mm/hr 0.00 in0.0 mm
05:41 AM 62.1°F16.7°C 31.1°F-0.5°C 31% 4.0 mph N6.4 kmh N 6.3 mph10.1 kmh 25.10 in850.0 mb 0.00 in0.0 mm 0.00 in/hr0.0 mm/hr 0.00 in0.0 mm
05:46 AM 62.4°F16.9°C 32.9°F0.5°C 33% 4.0 mph NNW6.4 kmh NNW 6.9 mph11.1 kmh 25.10 in850.0 mb 0.00 in0.0 mm 0.00 in/hr0.0 mm/hr 0.00 in0.0 mm
05:51 AM 62.2°F16.8°C 33.4°F0.8°C 34% 4.0 mph NW6.4 kmh NW 6.9 mph11.1 kmh 25.10 in850.0 mb 0.00 in0.0 mm 0.00 in/hr0.0 mm/hr 0.00 in0.0 mm
05:56 AM 61.9°F16.6°C 33.3°F0.7°C 34% 4.0 mph NW6.4 kmh NW 6.7 mph10.8 kmh 25.10 in850.0 mb 0.00 in0.0 mm 0.00 in/hr0.0 mm/hr 0.00 in0.0 mm
06:02 AM 62.6°F17.0°C 33.1°F0.6°C 33% 5.0 mph NW8.0 kmh NW 10.1 mph16.3 kmh 25.10 in850.0 mb 0.00 in0.0 mm 0.00 in/hr0.0 mm/hr 0.00 in0.0 mm
06:07 AM 62.2°F16.8°C 32.7°F0.4°C 33% 6.0 mph NNW9.7 kmh NNW 10.1 mph16.3 kmh 25.10 in850.0 mb 0.00 in0.0 mm 0.00 in/hr0.0 mm/hr 0.00 in0.0 mm
06:12 AM 61.7°F16.5°C 33.1°F0.6°C 34% 6.0 mph N9.7 kmh N 8.7 mph14.0 kmh 25.10 in850.0 mb 0.00 in0.0 mm 0.00 in/hr0.0 mm/hr 0.00 in0.0 mm
06:17 AM 61.9°F16.6°C 32.5°F0.3°C 33% 4.0 mph NNE6.4 kmh NNE 6.3 mph10.1 kmh 25.10 in850.0 mb 0.00 in0.0 mm 0.00 in/hr0.0 mm/hr 0.00 in0.0 mm
06:22 AM 60.8°F16.0°C 32.2°F0.1°C 34% 4.0 mph NE6.4 kmh NE 6.7 mph10.8 kmh 25.10 in850.0 mb 0.00 in0.0 mm 0.00 in/hr0.0 mm/hr 0.00 in0.0 mm
06:27 AM 62.4°F16.9°C 33.6°F0.9°C 34% 3.0 mph NE4.8 kmh NE 7.8 mph12.6 kmh 25.10 in850.0 mb 0.00 in0.0 mm 0.00 in/hr0.0 mm/hr 0.00 in0.0 mm
06:32 AM 63.7°F17.6°C 31.6°F-0.2°C 30% 4.0 mph NE6.4 kmh NE 7.4 mph11.9 kmh 25.10 in850.0 mb 0.00 in0.0 mm 0.00 in/hr0.0 mm/hr 0.00 in0.0 mm
06:37 AM 64.4°F18.0°C 30.6°F-0.8°C 28% 5.0 mph NNE8.0 kmh NNE 8.7 mph14.0 kmh 25.10 in850.0 mb 0.00 in0.0 mm 0.00 in/hr0.0 mm/hr 0.00 in0.0 mm
06:42 AM 64.4°F18.0°C 29.7°F-1.3°C 27% 6.0 mph NNE9.7 kmh NNE 8.3 mph13.4 kmh 25.10 in850.0 mb 0.00 in0.0 mm 0.00 in/hr0.0 mm/hr 0.00 in0.0 mm
06:47 AM 64.0°F17.8°C 29.3°F-1.5°C 27% 5.0 mph NNE8.0 kmh NNE 7.8 mph12.6 kmh 25.10 in850.0 mb 0.00 in0.0 mm 0.00 in/hr0.0 mm/hr 0.00 in0.0 mm
06:52 AM 63.9°F17.7°C 29.3°F-1.5°C 27% 4.0 mph NE6.4 kmh NE 6.3 mph10.1 kmh 25.10 in850.0 mb 0.00 in0.0 mm 0.00 in/hr0.0 mm/hr 0.00 in0.0 mm
06:57 AM 63.9°F17.7°C 29.3°F-1.5°C 27% 3.0 mph NE4.8 kmh NE 6.9 mph11.1 kmh 25.10 in850.0 mb 0.00 in0.0 mm 0.00 in/hr0.0 mm/hr 0.00 in0.0 mm
07:02 AM 64.4°F18.0°C 29.7°F-1.3°C 27% 4.0 mph NNE6.4 kmh NNE 6.3 mph10.1 kmh 25.10 in850.0 mb 0.00 in0.0 mm 0.00 in/hr0.0 mm/hr 0.00 in0.0 mm
07:07 AM 64.2°F17.9°C 29.5°F-1.4°C 27% 3.0 mph N4.8 kmh N 4.9 mph7.9 kmh 25.10 in850.0 mb 0.00 in0.0 mm 0.00 in/hr0.0 mm/hr 0.00 in0.0 mm
07:12 AM 64.2°F17.9°C 29.5°F-1.4°C 27% 3.0 mph N4.8 kmh N 4.9 mph7.9 kmh 25.10 in850.0 mb 0.00 in0.0 mm 0.00 in/hr0.0 mm/hr 0.00 in0.0 mm
07:17 AM 64.4°F18.0°C 29.7°F-1.3°C 27% 4.0 mph N6.4 kmh N 6.9 mph11.1 kmh 25.10 in850.0 mb 0.00 in0.0 mm 0.00 in/hr0.0 mm/hr 0.00 in0.0 mm
07:22 AM 64.6°F18.1°C 28.9°F-1.7°C 26% 2.0 mph N3.2 kmh N 4.0 mph6.4 kmh 25.10 in850.0 mb 0.00 in0.0 mm 0.00 in/hr0.0 mm/hr 0.00 in0.0 mm
07:27 AM 64.4°F18.0°C 29.7°F-1.3°C 27% 1.0 mph N1.6 kmh N 4.5 mph7.2 kmh 25.10 in850.0 mb 0.00 in0.0 mm 0.00 in/hr0.0 mm/hr 0.00 in0.0 mm
07:32 AM 64.0°F17.8°C 29.3°F-1.5°C 27% 3.0 mph N4.8 kmh N 6.3 mph10.1 kmh 25.10 in850.0 mb 0.00 in0.0 mm 0.00 in/hr0.0 mm/hr 0.00 in0.0 mm
07:37 AM 63.1°F17.3°C 31.3°F-0.4°C 30% 4.0 mph NNW6.4 kmh NNW 6.3 mph10.1 kmh 25.13 in851.0 mb 0.00 in0.0 mm 0.00 in/hr0.0 mm/hr 0.00 in0.0 mm
07:42 AM 62.2°F16.8°C 32.7°F0.4°C 33% 4.0 mph N6.4 kmh N 6.7 mph10.8 kmh 25.13 in851.0 mb 0.00 in0.0 mm 0.00 in/hr0.0 mm/hr 0.00 in0.0 mm
07:47 AM 62.4°F16.9°C 33.6°F0.9°C 34% 5.0 mph N8.0 kmh N 8.7 mph14.0 kmh 25.13 in851.0 mb 0.00 in0.0 mm 0.00 in/hr0.0 mm/hr 0.00 in0.0 mm
07:52 AM 63.1°F17.3°C 33.6°F0.9°C 33% 6.0 mph N9.7 kmh N 9.6 mph15.4 kmh 25.13 in851.0 mb 0.00 in0.0 mm 0.00 in/hr0.0 mm/hr 0.00 in0.0 mm
07:57 AM 63.5°F17.5°C 32.4°F0.2°C 31% 5.0 mph NNE8.0 kmh NNE 6.9 mph11.1 kmh 25.13 in851.0 mb 0.00 in0.0 mm 0.00 in/hr0.0 mm/hr 0.00 in0.0 mm
08:02 AM 64.2°F17.9°C 32.2°F0.1°C 30% 4.0 mph NE6.4 kmh NE 6.3 mph10.1 kmh 25.13 in851.0 mb 0.00 in0.0 mm 0.00 in/hr0.0 mm/hr 0.00 in0.0 mm
08:07 AM 64.6°F18.1°C 30.7°F-0.7°C 28% 4.0 mph NE6.4 kmh NE 6.9 mph11.1 kmh 25.13 in851.0 mb 0.00 in0.0 mm 0.00 in/hr0.0 mm/hr 0.00 in0.0 mm
08:12 AM 64.9°F18.3°C 31.1°F-0.5°C 28% 3.0 mph NE4.8 kmh NE 5.4 mph8.7 kmh 25.13 in851.0 mb 0.00 in0.0 mm 0.00 in/hr0.0 mm/hr 0.00 in0.0 mm
08:17 AM 65.1°F18.4°C 31.3°F-0.4°C 28% 3.0 mph NE4.8 kmh NE 6.9 mph11.1 kmh 25.13 in851.0 mb 0.00 in0.0 mm 0.00 in/hr0.0 mm/hr 0.00 in0.0 mm
08:22 AM 66.0°F18.9°C 31.1°F-0.5°C 27% 4.0 mph NE6.4 kmh NE 6.9 mph11.1 kmh 25.13 in851.0 mb 0.00 in0.0 mm 0.00 in/hr0.0 mm/hr 0.00 in0.0 mm
08:27 AM 66.6°F19.2°C 31.5°F-0.3°C 27% 4.0 mph NE6.4 kmh NE 7.8 mph12.6 kmh 25.13 in851.0 mb 0.00 in0.0 mm 0.00 in/hr0.0 mm/hr 0.00 in0.0 mm
08:32 AM 67.8°F19.9°C 30.7°F-0.7°C 25% 5.0 mph NNE8.0 kmh NNE 8.7 mph14.0 kmh 25.13 in851.0 mb 0.00 in0.0 mm 0.00 in/hr0.0 mm/hr 0.00 in0.0 mm
08:37 AM 68.5°F20.3°C 30.4°F-0.9°C 24% 6.0 mph NNE9.7 kmh NNE 10.5 mph16.9 kmh 25.13 in851.0 mb 0.00 in0.0 mm 0.00 in/hr0.0 mm/hr 0.00 in0.0 mm
08:42 AM 68.7°F20.4°C 29.5°F-1.4°C 23% 6.0 mph NNE9.7 kmh NNE 8.3 mph13.4 kmh 25.13 in851.0 mb 0.00 in0.0 mm 0.00 in/hr0.0 mm/hr 0.00 in0.0 mm
08:47 AM 68.5°F20.3°C 29.3°F-1.5°C 23% 6.0 mph N9.7 kmh N 10.5 mph16.9 kmh 25.13 in851.0 mb 0.00 in0.0 mm 0.00 in/hr0.0 mm/hr 0.00 in0.0 mm
08:52 AM 68.7°F20.4°C 29.5°F-1.4°C 23% 7.0 mph N11.3 kmh N 9.6 mph15.4 kmh 25.13 in851.0 mb 0.00 in0.0 mm 0.00 in/hr0.0 mm/hr 0.00 in0.0 mm
08:57 AM 68.5°F20.3°C 29.3°F-1.5°C 23% 7.0 mph N11.3 kmh N 10.5 mph16.9 kmh 25.13 in851.0 mb 0.00 in0.0 mm 0.00 in/hr0.0 mm/hr 0.00 in0.0 mm
09:02 AM 68.7°F20.4°C 29.5°F-1.4°C 23% 6.0 mph N9.7 kmh N 9.6 mph15.4 kmh 25.13 in851.0 mb 0.00 in0.0 mm 0.00 in/hr0.0 mm/hr 0.00 in0.0 mm
09:07 AM 69.3°F20.7°C 28.8°F-1.8°C 22% 6.0 mph N9.7 kmh N 8.3 mph13.4 kmh 25.13 in851.0 mb 0.00 in0.0 mm 0.00 in/hr0.0 mm/hr 0.00 in0.0 mm
09:12 AM 69.1°F20.6°C 28.6°F-1.9°C 22% 6.0 mph N9.7 kmh N 11.0 mph17.7 kmh 25.13 in851.0 mb 0.00 in0.0 mm 0.00 in/hr0.0 mm/hr 0.00 in0.0 mm
09:17 AM 68.4°F20.2°C 29.1°F-1.6°C 23% 6.0 mph N9.7 kmh N 9.6 mph15.4 kmh 25.13 in851.0 mb 0.00 in0.0 mm 0.00 in/hr0.0 mm/hr 0.00 in0.0 mm
09:22 AM 69.8°F21.0°C 29.3°F-1.5°C 22% 6.0 mph N9.7 kmh N 10.1 mph16.3 kmh 25.13 in851.0 mb 0.00 in0.0 mm 0.00 in/hr0.0 mm/hr 0.00 in0.0 mm
09:27 AM 69.4°F20.8°C 28.9°F-1.7°C 22% 7.0 mph N11.3 kmh N 10.1 mph16.3 kmh 25.13 in851.0 mb 0.00 in0.0 mm 0.00 in/hr0.0 mm/hr 0.00 in0.0 mm
09:32 AM 69.8°F21.0°C 29.3°F-1.5°C 22% 7.0 mph N11.3 kmh N 11.0 mph17.7 kmh 25.13 in851.0 mb 0.00 in0.0 mm 0.00 in/hr0.0 mm/hr 0.00 in0.0 mm
09:37 AM 69.8°F21.0°C 29.3°F-1.5°C 22% 7.0 mph N11.3 kmh N 10.5 mph16.9 kmh 25.13 in851.0 mb 0.00 in0.0 mm 0.00 in/hr0.0 mm/hr 0.00 in0.0 mm
09:42 AM 69.6°F20.9°C 29.1°F-1.6°C 22% 7.0 mph N11.3 kmh N 10.5 mph16.9 kmh 25.13 in851.0 mb 0.00 in0.0 mm 0.00 in/hr0.0 mm/hr 0.00 in0.0 mm
09:47 AM 69.1°F20.6°C 28.6°F-1.9°C 22% 7.0 mph N11.3 kmh N 11.2 mph18.0 kmh 25.13 in851.0 mb 0.00 in0.0 mm 0.00 in/hr0.0 mm/hr 0.00 in0.0 mm
09:52 AM 69.6°F20.9°C 29.1°F-1.6°C 22% 6.0 mph N9.7 kmh N 12.5 mph20.1 kmh 25.13 in851.0 mb 0.00 in0.0 mm 0.00 in/hr0.0 mm/hr 0.00 in0.0 mm
09:57 AM 69.1°F20.6°C 28.6°F-1.9°C 22% 7.0 mph NNW11.3 kmh NNW 10.5 mph16.9 kmh 25.13 in851.0 mb 0.00 in0.0 mm 0.00 in/hr0.0 mm/hr 0.00 in0.0 mm
10:02 AM 69.1°F20.6°C 28.6°F-1.9°C 22% 6.0 mph NNW9.7 kmh NNW 11.0 mph17.7 kmh 25.13 in851.0 mb 0.00 in0.0 mm 0.00 in/hr0.0 mm/hr 0.00 in0.0 mm
10:07 AM 68.7°F20.4°C 28.4°F-2.0°C 22% 6.0 mph NW9.7 kmh NW 9.2 mph14.8 kmh 25.13 in851.0 mb 0.00 in0.0 mm 0.00 in/hr0.0 mm/hr 0.00 in0.0 mm
10:12 AM 69.8°F21.0°C 29.3°F-1.5°C 22% 6.0 mph NNW9.7 kmh NNW 11.2 mph18.0 kmh 25.13 in851.0 mb 0.00 in0.0 mm 0.00 in/hr0.0 mm/hr 0.00 in0.0 mm
10:17 AM 70.5°F21.4°C 29.8°F-1.2°C 22% 7.0 mph N11.3 kmh N 10.5 mph16.9 kmh 25.13 in851.0 mb 0.00 in0.0 mm 0.00 in/hr0.0 mm/hr 0.00 in0.0 mm
10:22 AM 71.4°F21.9°C 30.6°F-0.8°C 22% 7.0 mph N11.3 kmh N 9.6 mph15.4 kmh 25.13 in851.0 mb 0.00 in0.0 mm 0.00 in/hr0.0 mm/hr 0.00 in0.0 mm
10:27 AM 71.8°F22.1°C 29.7°F-1.3°C 21% 6.0 mph NNW9.7 kmh NNW 9.2 mph14.8 kmh 25.13 in851.0 mb 0.00 in0.0 mm 0.00 in/hr0.0 mm/hr 0.00 in0.0 mm
10:32 AM 71.6°F22.0°C 30.7°F-0.7°C 22% 6.0 mph NNW9.7 kmh NNW 9.2 mph14.8 kmh 25.13 in851.0 mb 0.00 in0.0 mm 0.00 in/hr0.0 mm/hr 0.00 in0.0 mm
10:37 AM 72.0°F22.2°C 31.1°F-0.5°C 22% 6.0 mph NNW9.7 kmh NNW 8.7 mph14.0 kmh 25.13 in851.0 mb 0.00 in0.0 mm 0.00 in/hr0.0 mm/hr 0.00 in0.0 mm
10:42 AM 71.4°F21.9°C 29.5°F-1.4°C 21% 7.0 mph NNW11.3 kmh NNW 11.0 mph17.7 kmh 25.13 in851.0 mb 0.00 in0.0 mm 0.00 in/hr0.0 mm/hr 0.00 in0.0 mm
10:47 AM 72.7°F22.6°C 30.6°F-0.8°C 21% 7.0 mph N11.3 kmh N 9.6 mph15.4 kmh 25.13 in851.0 mb 0.00 in0.0 mm 0.00 in/hr0.0 mm/hr 0.00 in0.0 mm
10:52 AM 73.6°F23.1°C 27.5°F-2.5°C 18% 6.0 mph N9.7 kmh N 10.5 mph16.9 kmh 25.13 in851.0 mb 0.00 in0.0 mm 0.00 in/hr0.0 mm/hr 0.00 in0.0 mm
10:57 AM 73.8°F23.2°C 27.7°F-2.4°C 18% 6.0 mph N9.7 kmh N 11.0 mph17.7 kmh 25.13 in851.0 mb 0.00 in0.0 mm 0.00 in/hr0.0 mm/hr 0.00 in0.0 mm
11:02 AM 73.4°F23.0°C 24.4°F-4.2°C 16% 7.0 mph N11.3 kmh N 10.1 mph16.3 kmh 25.13 in851.0 mb 0.00 in0.0 mm 0.00 in/hr0.0 mm/hr 0.00 in0.0 mm
11:07 AM 74.5°F23.6°C 23.7°F-4.6°C 15% 7.0 mph NNW11.3 kmh NNW 11.2 mph18.0 kmh 25.13 in851.0 mb 0.00 in0.0 mm 0.00 in/hr0.0 mm/hr 0.00 in0.0 mm
11:12 AM 74.8°F23.8°C 24.1°F-4.4°C 15% 7.0 mph NNW11.3 kmh NNW 11.0 mph17.7 kmh 25.13 in851.0 mb 0.00 in0.0 mm 0.00 in/hr0.0 mm/hr 0.00 in0.0 mm
11:17 AM 74.5°F23.6°C 20.5°F-6.4°C 13% 6.0 mph NNW9.7 kmh NNW 11.2 mph18.0 kmh 25.13 in851.0 mb 0.00 in0.0 mm 0.00 in/hr0.0 mm/hr 0.00 in0.0 mm
11:22 AM 74.3°F23.5°C 20.3°F-6.5°C 13% 6.0 mph NW9.7 kmh NW 9.2 mph14.8 kmh 25.13 in851.0 mb 0.00 in0.0 mm 0.00 in/hr0.0 mm/hr 0.00 in0.0 mm
11:27 AM 75.6°F24.2°C 21.2°F-6.0°C 13% 6.0 mph NNW9.7 kmh NNW 10.1 mph16.3 kmh 25.13 in851.0 mb 0.00 in0.0 mm 0.00 in/hr0.0 mm/hr 0.00 in0.0 mm
11:32 AM 76.5°F24.7°C -5537.2°C - 6.0 mph N9.7 kmh N 11.0 mph17.7 kmh 25.13 in851.0 mb 0.00 in0.0 mm 0.00 in/hr0.0 mm/hr 0.00 in0.0 mm
11:37 AM 76.3°F24.6°C -5537.2°C - 6.0 mph NNW9.7 kmh NNW 11.2 mph18.0 kmh 25.13 in851.0 mb 0.00 in0.0 mm 0.00 in/hr0.0 mm/hr 0.00 in0.0 mm
11:42 AM 77.4°F25.2°C -5537.2°C - 7.0 mph N11.3 kmh N 10.1 mph16.3 kmh 25.13 in851.0 mb 0.00 in0.0 mm 0.00 in/hr0.0 mm/hr 0.00 in0.0 mm
11:47 AM 77.0°F25.0°C -5537.2°C - 6.0 mph NNW9.7 kmh NNW 9.2 mph14.8 kmh 25.10 in850.0 mb 0.00 in0.0 mm 0.00 in/hr0.0 mm/hr 0.00 in0.0 mm
11:52 AM 77.2°F25.1°C -5537.2°C - 6.0 mph NW9.7 kmh NW 8.7 mph14.0 kmh 25.10 in850.0 mb 0.00 in0.0 mm 0.00 in/hr0.0 mm/hr 0.00 in0.0 mm
11:57 AM 77.2°F25.1°C -5537.2°C - 6.0 mph NW9.7 kmh NW 9.2 mph14.8 kmh 25.10 in850.0 mb 0.00 in0.0 mm 0.00 in/hr0.0 mm/hr 0.00 in0.0 mm
12:02 PM 76.8°F24.9°C -5537.2°C - 6.0 mph NW9.7 kmh NW 10.1 mph16.3 kmh 25.10 in850.0 mb 0.00 in0.0 mm 0.00 in/hr0.0 mm/hr 0.00 in0.0 mm
12:07 PM 77.5°F25.3°C -5537.2°C - 6.0 mph NW9.7 kmh NW 10.1 mph16.3 kmh 25.10 in850.0 mb 0.00 in0.0 mm 0.00 in/hr0.0 mm/hr 0.00 in0.0 mm
12:12 PM 78.1°F25.6°C -5537.2°C - 5.0 mph NW8.0 kmh NW 8.7 mph14.0 kmh 25.10 in850.0 mb 0.00 in0.0 mm 0.00 in/hr0.0 mm/hr 0.00 in0.0 mm
12:17 PM 78.6°F25.9°C -5537.2°C - 5.0 mph NW8.0 kmh NW 7.4 mph11.9 kmh 25.10 in850.0 mb 0.00 in0.0 mm 0.00 in/hr0.0 mm/hr 0.00 in0.0 mm
12:22 PM 79.3°F26.3°C -5537.2°C - 4.0 mph NNW6.4 kmh NNW 7.8 mph12.6 kmh 25.10 in850.0 mb 0.00 in0.0 mm 0.00 in/hr0.0 mm/hr 0.00 in0.0 mm
12:27 PM 79.5°F26.4°C -5537.2°C - 4.0 mph NW6.4 kmh NW 7.4 mph11.9 kmh 25.10 in850.0 mb 0.00 in0.0 mm 0.00 in/hr0.0 mm/hr 0.00 in0.0 mm
12:32 PM 78.8°F26.0°C -5537.2°C - 5.0 mph NW8.0 kmh NW 7.4 mph11.9 kmh 25.10 in850.0 mb 0.00 in0.0 mm 0.00 in/hr0.0 mm/hr 0.00 in0.0 mm
12:37 PM 79.3°F26.3°C -5537.2°C - 4.0 mph N6.4 kmh N 6.7 mph10.8 kmh 25.10 in850.0 mb 0.00 in0.0 mm 0.00 in/hr0.0 mm/hr 0.00 in0.0 mm
12:42 PM 79.5°F26.4°C -5537.2°C - 3.0 mph NNW4.8 kmh NNW 6.7 mph10.8 kmh 25.10 in850.0 mb 0.00 in0.0 mm 0.00 in/hr0.0 mm/hr 0.00 in0.0 mm
12:47 PM 80.4°F26.9°C -5537.2°C - 4.0 mph NW6.4 kmh NW 6.3 mph10.1 kmh 25.10 in850.0 mb 0.00 in0.0 mm 0.00 in/hr0.0 mm/hr 0.00 in0.0 mm
12:52 PM 80.2°F26.8°C -5537.2°C - 4.0 mph NW6.4 kmh NW 7.8 mph12.6 kmh 25.10 in850.0 mb 0.00 in0.0 mm 0.00 in/hr0.0 mm/hr 0.00 in0.0 mm
12:57 PM 80.2°F26.8°C -5537.2°C - 4.0 mph WNW6.4 kmh WNW 8.3 mph13.4 kmh 25.10 in850.0 mb 0.00 in0.0 mm 0.00 in/hr0.0 mm/hr 0.00 in0.0 mm
01:02 PM 81.0°F27.2°C -5537.2°C - 3.0 mph W4.8 kmh W 6.3 mph10.1 kmh 25.10 in850.0 mb 0.00 in0.0 mm 0.00 in/hr0.0 mm/hr 0.00 in0.0 mm
01:07 PM 81.5°F27.5°C -5537.2°C - 2.0 mph W3.2 kmh W 4.5 mph7.2 kmh 25.10 in850.0 mb 0.00 in0.0 mm 0.00 in/hr0.0 mm/hr 0.00 in0.0 mm
01:12 PM 82.0°F27.8°C -5537.2°C - 2.0 mph W3.2 kmh W 6.3 mph10.1 kmh 25.10 in850.0 mb 0.00 in0.0 mm 0.00 in/hr0.0 mm/hr 0.00 in0.0 mm
01:17 PM 81.1°F27.3°C -5537.2°C - 4.0 mph WSW6.4 kmh WSW 7.4 mph11.9 kmh 25.07 in849.0 mb 0.00 in0.0 mm 0.00 in/hr0.0 mm/hr 0.00 in0.0 mm
01:23 PM 81.3°F27.4°C -5537.2°C - 4.0 mph S6.4 kmh S 7.4 mph11.9 kmh 25.07 in849.0 mb 0.00 in0.0 mm 0.00 in/hr0.0 mm/hr 0.00 in0.0 mm
01:28 PM 82.0°F27.8°C -5537.2°C - 4.0 mph SE6.4 kmh SE 6.7 mph10.8 kmh 25.07 in849.0 mb 0.00 in0.0 mm 0.00 in/hr0.0 mm/hr 0.00 in0.0 mm
01:33 PM 83.1°F28.4°C -5537.2°C - 3.0 mph SE4.8 kmh SE 7.4 mph11.9 kmh 25.07 in849.0 mb 0.00 in0.0 mm 0.00 in/hr0.0 mm/hr 0.00 in0.0 mm
01:38 PM 83.7°F28.7°C -5537.2°C - 2.0 mph SE3.2 kmh SE 5.8 mph9.3 kmh 25.07 in849.0 mb 0.00 in0.0 mm 0.00 in/hr0.0 mm/hr 0.00 in0.0 mm
01:43 PM 83.7°F28.7°C -5537.2°C - 3.0 mph SE4.8 kmh SE 6.3 mph10.1 kmh 25.07 in849.0 mb 0.00 in0.0 mm 0.00 in/hr0.0 mm/hr 0.00 in0.0 mm
01:48 PM 84.0°F28.9°C -5537.2°C - 4.0 mph SE6.4 kmh SE 8.3 mph13.4 kmh 25.07 in849.0 mb 0.00 in0.0 mm 0.00 in/hr0.0 mm/hr 0.00 in0.0 mm
01:53 PM 84.7°F29.3°C -5537.2°C - 4.0 mph ESE6.4 kmh ESE 7.4 mph11.9 kmh 25.07 in849.0 mb 0.00 in0.0 mm 0.00 in/hr0.0 mm/hr 0.00 in0.0 mm
01:58 PM 84.6°F29.2°C -5537.2°C - 4.0 mph SE6.4 kmh SE 8.3 mph13.4 kmh 25.07 in849.0 mb 0.00 in0.0 mm 0.00 in/hr0.0 mm/hr 0.00 in0.0 mm
02:03 PM 84.9°F29.4°C -5537.2°C - 3.0 mph SSE4.8 kmh SSE 5.4 mph8.7 kmh 25.04 in848.0 mb 0.00 in0.0 mm 0.00 in/hr0.0 mm/hr 0.00 in0.0 mm
02:08 PM 84.4°F29.1°C -5537.2°C - 3.0 mph SSE4.8 kmh SSE 8.3 mph13.4 kmh 25.04 in848.0 mb 0.00 in0.0 mm 0.00 in/hr0.0 mm/hr 0.00 in0.0 mm
02:13 PM 84.9°F29.4°C -5537.2°C - 5.0 mph S8.0 kmh S 10.1 mph16.3 kmh 25.04 in848.0 mb 0.00 in0.0 mm 0.00 in/hr0.0 mm/hr 0.00 in0.0 mm
02:18 PM 84.7°F29.3°C -5537.2°C - 5.0 mph SSE8.0 kmh SSE 8.7 mph14.0 kmh 25.04 in848.0 mb 0.00 in0.0 mm 0.00 in/hr0.0 mm/hr 0.00 in0.0 mm
02:23 PM 85.1°F29.5°C -5537.2°C - 5.0 mph SE8.0 kmh SE 9.6 mph15.4 kmh 25.04 in848.0 mb 0.00 in0.0 mm 0.00 in/hr0.0 mm/hr 0.00 in0.0 mm
02:28 PM 85.1°F29.5°C -5537.2°C - 5.0 mph SSE8.0 kmh SSE 9.6 mph15.4 kmh 25.04 in848.0 mb 0.00 in0.0 mm 0.00 in/hr0.0 mm/hr 0.00 in0.0 mm
02:33 PM 84.9°F29.4°C -5537.2°C - 5.0 mph S8.0 kmh S 10.5 mph16.9 kmh 25.04 in848.0 mb 0.00 in0.0 mm 0.00 in/hr0.0 mm/hr 0.00 in0.0 mm
02:38 PM 85.3°F29.6°C -5537.2°C - 5.0 mph S8.0 kmh S 6.3 mph10.1 kmh 25.04 in848.0 mb 0.00 in0.0 mm 0.00 in/hr0.0 mm/hr 0.00 in0.0 mm
02:43 PM 86.0°F30.0°C -5537.2°C - 5.0 mph S8.0 kmh S 11.0 mph17.7 kmh 25.04 in848.0 mb 0.00 in0.0 mm 0.00 in/hr0.0 mm/hr 0.00 in0.0 mm
02:48 PM 85.6°F29.8°C -5537.2°C - 7.0 mph S11.3 kmh S 11.2 mph18.0 kmh 25.04 in848.0 mb 0.00 in0.0 mm 0.00 in/hr0.0 mm/hr 0.00 in0.0 mm
02:53 PM 85.8°F29.9°C -5537.2°C - 7.0 mph S11.3 kmh S 10.1 mph16.3 kmh 25.04 in848.0 mb 0.00 in0.0 mm 0.00 in/hr0.0 mm/hr 0.00 in0.0 mm
02:58 PM 85.8°F29.9°C -5537.2°C - 6.0 mph S9.7 kmh S 10.5 mph16.9 kmh 25.04 in848.0 mb 0.00 in0.0 mm 0.00 in/hr0.0 mm/hr 0.00 in0.0 mm
03:03 PM 86.7°F30.4°C -5537.2°C - 6.0 mph S9.7 kmh S 11.2 mph18.0 kmh 25.01 in846.9 mb 0.00 in0.0 mm 0.00 in/hr0.0 mm/hr 0.00 in0.0 mm
03:08 PM 86.9°F30.5°C -5537.2°C - 7.0 mph SSE11.3 kmh SSE 10.5 mph16.9 kmh 25.01 in846.9 mb 0.00 in0.0 mm 0.00 in/hr0.0 mm/hr 0.00 in0.0 mm
03:13 PM 86.5°F30.3°C -5537.2°C - 6.0 mph S9.7 kmh S 9.2 mph14.8 kmh 25.01 in846.9 mb 0.00 in0.0 mm 0.00 in/hr0.0 mm/hr 0.00 in0.0 mm
03:18 PM 86.5°F30.3°C -5537.2°C - 6.0 mph S9.7 kmh S 11.2 mph18.0 kmh 25.01 in846.9 mb 0.00 in0.0 mm 0.00 in/hr0.0 mm/hr 0.00 in0.0 mm
03:23 PM 86.9°F30.5°C -5537.2°C - 6.0 mph SSE9.7 kmh SSE 10.1 mph16.3 kmh 25.01 in846.9 mb 0.00 in0.0 mm 0.00 in/hr0.0 mm/hr 0.00 in0.0 mm
03:28 PM 87.1°F30.6°C -5537.2°C - 6.0 mph SSE9.7 kmh SSE 8.7 mph14.0 kmh 25.01 in846.9 mb 0.00 in0.0 mm 0.00 in/hr0.0 mm/hr 0.00 in0.0 mm
03:33 PM 87.3°F30.7°C -5537.2°C - 6.0 mph SSE9.7 kmh SSE 8.3 mph13.4 kmh 25.01 in846.9 mb 0.00 in0.0 mm 0.00 in/hr0.0 mm/hr 0.00 in0.0 mm
03:38 PM 86.9°F30.5°C -5537.2°C - 6.0 mph SSE9.7 kmh SSE 8.7 mph14.0 kmh 25.01 in846.9 mb 0.00 in0.0 mm 0.00 in/hr0.0 mm/hr 0.00 in0.0 mm
03:43 PM 87.4°F30.8°C -5537.2°C - 6.0 mph SSE9.7 kmh SSE 10.1 mph16.3 kmh 25.01 in846.9 mb 0.00 in0.0 mm 0.00 in/hr0.0 mm/hr 0.00 in0.0 mm
03:48 PM 87.6°F30.9°C -5537.2°C - 6.0 mph S9.7 kmh S 8.7 mph14.0 kmh 25.01 in846.9 mb 0.00 in0.0 mm 0.00 in/hr0.0 mm/hr 0.00 in0.0 mm
03:53 PM 88.3°F31.3°C -5537.2°C - 6.0 mph S9.7 kmh S 10.1 mph16.3 kmh 25.01 in846.9 mb 0.00 in0.0 mm 0.00 in/hr0.0 mm/hr 0.00 in0.0 mm
03:58 PM 88.0°F31.1°C -5537.2°C - 6.0 mph S9.7 kmh S 9.2 mph14.8 kmh 25.01 in846.9 mb 0.00 in0.0 mm 0.00 in/hr0.0 mm/hr 0.00 in0.0 mm
04:03 PM 87.8°F31.0°C -5537.2°C - 6.0 mph S9.7 kmh S 8.3 mph13.4 kmh 25.01 in846.9 mb 0.00 in0.0 mm 0.00 in/hr0.0 mm/hr 0.00 in0.0 mm
04:08 PM 87.6°F30.9°C -5537.2°C - 6.0 mph S9.7 kmh S 8.7 mph14.0 kmh 25.01 in846.9 mb 0.00 in0.0 mm 0.00 in/hr0.0 mm/hr 0.00 in0.0 mm
04:13 PM 88.0°F31.1°C -5537.2°C - 6.0 mph S9.7 kmh S 9.2 mph14.8 kmh 25.01 in846.9 mb 0.00 in0.0 mm 0.00 in/hr0.0 mm/hr 0.00 in0.0 mm
04:18 PM 87.8°F31.0°C -5537.2°C - 6.0 mph S9.7 kmh S 11.0 mph17.7 kmh 25.01 in846.9 mb 0.00 in0.0 mm 0.00 in/hr0.0 mm/hr 0.00 in0.0 mm
04:23 PM 88.2°F31.2°C -5537.2°C - 6.0 mph S9.7 kmh S 9.2 mph14.8 kmh 25.01 in846.9 mb 0.00 in0.0 mm 0.00 in/hr0.0 mm/hr 0.00 in0.0 mm
04:28 PM 88.2°F31.2°C -5537.2°C - 6.0 mph SSE9.7 kmh SSE 8.3 mph13.4 kmh 25.01 in846.9 mb 0.00 in0.0 mm 0.00 in/hr0.0 mm/hr 0.00 in0.0 mm
04:33 PM 88.7°F31.5°C -5537.2°C - 5.0 mph SSE8.0 kmh SSE 8.7 mph14.0 kmh 24.98 in845.9 mb 0.00 in0.0 mm 0.00 in/hr0.0 mm/hr 0.00 in0.0 mm
04:38 PM 88.2°F31.2°C -5537.2°C - 5.0 mph S8.0 kmh S 9.2 mph14.8 kmh 24.98 in845.9 mb 0.00 in0.0 mm 0.00 in/hr0.0 mm/hr 0.00 in0.0 mm
04:43 PM 88.2°F31.2°C -5537.2°C - 5.0 mph S8.0 kmh S 9.2 mph14.8 kmh 24.98 in845.9 mb 0.00 in0.0 mm 0.00 in/hr0.0 mm/hr 0.00 in0.0 mm
04:48 PM 88.3°F31.3°C -5537.2°C - 5.0 mph S8.0 kmh S 8.7 mph14.0 kmh 24.98 in845.9 mb 0.00 in0.0 mm 0.00 in/hr0.0 mm/hr 0.00 in0.0 mm
04:53 PM 88.5°F31.4°C -5537.2°C - 5.0 mph S8.0 kmh S 7.4 mph11.9 kmh 24.98 in845.9 mb 0.00 in0.0 mm 0.00 in/hr0.0 mm/hr 0.00 in0.0 mm
04:58 PM 88.2°F31.2°C -5537.2°C - 5.0 mph S8.0 kmh S 8.7 mph14.0 kmh 24.98 in845.9 mb 0.00 in0.0 mm 0.00 in/hr0.0 mm/hr 0.00 in0.0 mm
05:03 PM 88.2°F31.2°C -5537.2°C - 6.0 mph S9.7 kmh S 8.7 mph14.0 kmh 24.98 in845.9 mb 0.00 in0.0 mm 0.00 in/hr0.0 mm/hr 0.00 in0.0 mm
05:08 PM 88.5°F31.4°C -5537.2°C - 6.0 mph S9.7 kmh S 8.7 mph14.0 kmh 24.98 in845.9 mb 0.00 in0.0 mm 0.00 in/hr0.0 mm/hr 0.00 in0.0 mm
05:13 PM 88.5°F31.4°C -5537.2°C - 6.0 mph S9.7 kmh S 9.2 mph14.8 kmh 24.98 in845.9 mb 0.00 in0.0 mm 0.00 in/hr0.0 mm/hr 0.00 in0.0 mm
05:18 PM 88.5°F31.4°C -5537.2°C - 6.0 mph S9.7 kmh S 9.2 mph14.8 kmh 24.98 in845.9 mb 0.00 in0.0 mm 0.00 in/hr0.0 mm/hr 0.00 in0.0 mm
05:23 PM 88.3°F31.3°C -5537.2°C - 7.0 mph S11.3 kmh S 10.1 mph16.3 kmh 24.98 in845.9 mb 0.00 in0.0 mm 0.00 in/hr0.0 mm/hr 0.00 in0.0 mm
05:28 PM 88.3°F31.3°C -5537.2°C - 7.0 mph S11.3 kmh S 8.3 mph13.4 kmh 24.98 in845.9 mb 0.00 in0.0 mm 0.00 in/hr0.0 mm/hr 0.00 in0.0 mm
05:33 PM 88.2°F31.2°C -5537.2°C - 6.0 mph S9.7 kmh S 9.2 mph14.8 kmh 24.98 in845.9 mb 0.00 in0.0 mm 0.00 in/hr0.0 mm/hr 0.00 in0.0 mm
05:38 PM 88.2°F31.2°C -5537.2°C - 7.0 mph S11.3 kmh S 10.1 mph16.3 kmh 24.98 in845.9 mb 0.00 in0.0 mm 0.00 in/hr0.0 mm/hr 0.00 in0.0 mm
05:43 PM 88.2°F31.2°C -5537.2°C - 7.0 mph S11.3 kmh S 9.2 mph14.8 kmh 24.98 in845.9 mb 0.00 in0.0 mm 0.00 in/hr0.0 mm/hr 0.00 in0.0 mm
05:48 PM 88.2°F31.2°C -5537.2°C - 7.0 mph S11.3 kmh S 9.2 mph14.8 kmh 24.98 in845.9 mb 0.00 in0.0 mm 0.00 in/hr0.0 mm/hr 0.00 in0.0 mm
05:53 PM 88.2°F31.2°C -5537.2°C - 6.0 mph S9.7 kmh S 10.1 mph16.3 kmh 24.98 in845.9 mb 0.00 in0.0 mm 0.00 in/hr0.0 mm/hr 0.00 in0.0 mm
05:58 PM 87.6°F30.9°C -5537.2°C - 6.0 mph S9.7 kmh S 8.7 mph14.0 kmh 24.98 in845.9 mb 0.00 in0.0 mm 0.00 in/hr0.0 mm/hr 0.00 in0.0 mm
06:03 PM 87.4°F30.8°C -5537.2°C - 6.0 mph S9.7 kmh S 7.8 mph12.6 kmh 24.98 in845.9 mb 0.00 in0.0 mm 0.00 in/hr0.0 mm/hr 0.00 in0.0 mm
06:08 PM 87.3°F30.7°C -5537.2°C - 5.0 mph S8.0 kmh S 7.8 mph12.6 kmh 24.98 in845.9 mb 0.00 in0.0 mm 0.00 in/hr0.0 mm/hr 0.00 in0.0 mm
06:13 PM 87.1°F30.6°C -5537.2°C - 5.0 mph SSE8.0 kmh SSE 6.9 mph11.1 kmh 24.98 in845.9 mb 0.00 in0.0 mm 0.00 in/hr0.0 mm/hr 0.00 in0.0 mm
06:18 PM 86.5°F30.3°C -5537.2°C - 5.0 mph SSE8.0 kmh SSE 6.9 mph11.1 kmh 24.98 in845.9 mb 0.00 in0.0 mm 0.00 in/hr0.0 mm/hr 0.00 in0.0 mm
06:23 PM 86.2°F30.1°C -5537.2°C - 4.0 mph SSE6.4 kmh SSE 5.8 mph9.3 kmh 24.98 in845.9 mb 0.00 in0.0 mm 0.00 in/hr0.0 mm/hr 0.00 in0.0 mm
06:28 PM 86.2°F30.1°C -5537.2°C - 4.0 mph SSE6.4 kmh SSE 5.8 mph9.3 kmh 24.98 in845.9 mb 0.00 in0.0 mm 0.00 in/hr0.0 mm/hr 0.00 in0.0 mm
06:33 PM 85.8°F29.9°C -5537.2°C - 4.0 mph SSE6.4 kmh SSE 5.8 mph9.3 kmh 24.98 in845.9 mb 0.00 in0.0 mm 0.00 in/hr0.0 mm/hr 0.00 in0.0 mm
06:38 PM 85.6°F29.8°C -5537.2°C - 3.0 mph SSE4.8 kmh SSE 4.9 mph7.9 kmh 24.98 in845.9 mb 0.00 in0.0 mm 0.00 in/hr0.0 mm/hr 0.00 in0.0 mm
06:43 PM 85.5°F29.7°C -5537.2°C - 2.0 mph SSE3.2 kmh SSE 3.6 mph5.8 kmh 24.98 in845.9 mb 0.00 in0.0 mm 0.00 in/hr0.0 mm/hr 0.00 in0.0 mm
06:48 PM 85.1°F29.5°C -5537.2°C - 1.0 mph SSE1.6 kmh SSE 3.6 mph5.8 kmh 24.98 in845.9 mb 0.00 in0.0 mm 0.00 in/hr0.0 mm/hr 0.00 in0.0 mm
06:53 PM 84.0°F28.9°C -5537.2°C - 2.0 mph SSE3.2 kmh SSE 4.0 mph6.4 kmh 24.98 in845.9 mb 0.00 in0.0 mm 0.00 in/hr0.0 mm/hr 0.00 in0.0 mm
06:58 PM 83.3°F28.5°C -5537.2°C - 1.0 mph SSE1.6 kmh SSE -- 24.98 in845.9 mb 0.00 in0.0 mm 0.00 in/hr0.0 mm/hr 0.00 in0.0 mm
07:03 PM 82.4°F28.0°C -5537.2°C - Calm Calm 3.1 mph5.0 kmh 24.98 in845.9 mb 0.00 in0.0 mm 0.00 in/hr0.0 mm/hr 0.00 in0.0 mm
07:08 PM 81.7°F27.6°C -5537.2°C - Calm Calm 3.1 mph5.0 kmh 24.98 in845.9 mb 0.00 in0.0 mm 0.00 in/hr0.0 mm/hr 0.00 in0.0 mm
07:13 PM 80.8°F27.1°C -5537.2°C - Calm Calm -- 24.98 in845.9 mb 0.00 in0.0 mm 0.00 in/hr0.0 mm/hr 0.00 in0.0 mm
07:18 PM 80.2°F26.8°C -5537.2°C - Calm Calm -- 24.98 in845.9 mb 0.00 in0.0 mm 0.00 in/hr0.0 mm/hr 0.00 in0.0 mm
07:23 PM 80.2°F26.8°C -5537.2°C - Calm Calm -- 24.98 in845.9 mb 0.00 in0.0 mm 0.00 in/hr0.0 mm/hr 0.00 in0.0 mm
07:28 PM 79.9°F26.6°C -5537.2°C - Calm Calm -- 24.98 in845.9 mb 0.00 in0.0 mm 0.00 in/hr0.0 mm/hr 0.00 in0.0 mm
07:33 PM 79.7°F26.5°C -5537.2°C - Calm Calm -- 24.98 in845.9 mb 0.00 in0.0 mm 0.00 in/hr0.0 mm/hr 0.00 in0.0 mm
07:38 PM 79.3°F26.3°C -5537.2°C - Calm Calm 3.1 mph5.0 kmh 24.98 in845.9 mb 0.00 in0.0 mm 0.00 in/hr0.0 mm/hr 0.00 in0.0 mm
07:43 PM 79.5°F26.4°C -5537.2°C - Calm Calm 3.6 mph5.8 kmh 24.98 in845.9 mb 0.00 in0.0 mm 0.00 in/hr0.0 mm/hr 0.00 in0.0 mm
07:48 PM 79.2°F26.2°C -5537.2°C - Calm Calm 2.7 mph4.3 kmh 24.98 in845.9 mb 0.00 in0.0 mm 0.00 in/hr0.0 mm/hr 0.00 in0.0 mm
07:53 PM 78.8°F26.0°C -5537.2°C - Calm Calm -- 24.98 in845.9 mb 0.00 in0.0 mm 0.00 in/hr0.0 mm/hr 0.00 in0.0 mm
07:58 PM 78.4°F25.8°C -5537.2°C - Calm Calm 2.7 mph4.3 kmh 24.98 in845.9 mb 0.00 in0.0 mm 0.00 in/hr0.0 mm/hr 0.00 in0.0 mm
08:03 PM 78.1°F25.6°C -5537.2°C - Calm Calm 4.9 mph7.9 kmh 24.98 in845.9 mb 0.00 in0.0 mm 0.00 in/hr0.0 mm/hr 0.00 in0.0 mm
08:08 PM 77.9°F25.5°C -5537.2°C - Calm Calm 3.1 mph5.0 kmh 24.98 in845.9 mb 0.00 in0.0 mm 0.00 in/hr0.0 mm/hr 0.00 in0.0 mm
08:13 PM 77.7°F25.4°C -5537.2°C - Calm Calm 3.1 mph5.0 kmh 24.98 in845.9 mb 0.00 in0.0 mm 0.00 in/hr0.0 mm/hr 0.00 in0.0 mm
08:18 PM 77.7°F25.4°C -5537.2°C - Calm Calm 4.0 mph6.4 kmh 24.98 in845.9 mb 0.00 in0.0 mm 0.00 in/hr0.0 mm/hr 0.00 in0.0 mm
08:23 PM 77.4°F25.2°C -5537.2°C - Calm Calm 3.1 mph5.0 kmh 24.98 in845.9 mb 0.00 in0.0 mm 0.00 in/hr0.0 mm/hr 0.00 in0.0 mm
08:28 PM 77.4°F25.2°C -5537.2°C - Calm Calm -- 24.98 in845.9 mb 0.00 in0.0 mm 0.00 in/hr0.0 mm/hr 0.00 in0.0 mm
08:33 PM 77.4°F25.2°C -5537.2°C - Calm Calm 4.5 mph7.2 kmh 25.01 in846.9 mb 0.00 in0.0 mm 0.00 in/hr0.0 mm/hr 0.00 in0.0 mm
08:38 PM 77.4°F25.2°C -5537.2°C - 2.0 mph ESE3.2 kmh ESE 6.9 mph11.1 kmh 25.01 in846.9 mb 0.00 in0.0 mm 0.00 in/hr0.0 mm/hr 0.00 in0.0 mm
08:43 PM 77.0°F25.0°C -5537.2°C - 2.0 mph ESE3.2 kmh ESE 4.9 mph7.9 kmh 25.01 in846.9 mb 0.00 in0.0 mm 0.00 in/hr0.0 mm/hr 0.00 in0.0 mm
08:48 PM 77.0°F25.0°C -5537.2°C - 2.0 mph SE3.2 kmh SE 5.4 mph8.7 kmh 25.01 in846.9 mb 0.00 in0.0 mm 0.00 in/hr0.0 mm/hr 0.00 in0.0 mm
08:53 PM 77.5°F25.3°C -5537.2°C - 3.0 mph SE4.8 kmh SE 6.7 mph10.8 kmh 25.01 in846.9 mb 0.00 in0.0 mm 0.00 in/hr0.0 mm/hr 0.00 in0.0 mm
08:58 PM 78.3°F25.7°C -5537.2°C - 4.0 mph SE6.4 kmh SE 10.1 mph16.3 kmh 25.01 in846.9 mb 0.00 in0.0 mm 0.00 in/hr0.0 mm/hr 0.00 in0.0 mm
09:03 PM 78.6°F25.9°C -5537.2°C - 5.0 mph ESE8.0 kmh ESE 8.7 mph14.0 kmh 25.01 in846.9 mb 0.00 in0.0 mm 0.00 in/hr0.0 mm/hr 0.00 in0.0 mm
09:08 PM 78.6°F25.9°C -5537.2°C - 5.0 mph ESE8.0 kmh ESE 7.4 mph11.9 kmh 25.01 in846.9 mb 0.00 in0.0 mm 0.00 in/hr0.0 mm/hr 0.00 in0.0 mm
09:13 PM 78.3°F25.7°C -5537.2°C - 6.0 mph SE9.7 kmh SE 11.0 mph17.7 kmh 25.01 in846.9 mb 0.00 in0.0 mm 0.00 in/hr0.0 mm/hr 0.00 in0.0 mm
09:18 PM 77.9°F25.5°C -5537.2°C - 6.0 mph SSE9.7 kmh SSE 7.8 mph12.6 kmh 25.01 in846.9 mb 0.00 in0.0 mm 0.00 in/hr0.0 mm/hr 0.00 in0.0 mm
09:23 PM 77.5°F25.3°C -5537.2°C - 4.0 mph S6.4 kmh S 5.4 mph8.7 kmh 25.01 in846.9 mb 0.00 in0.0 mm 0.00 in/hr0.0 mm/hr 0.00 in0.0 mm
09:28 PM 77.5°F25.3°C -5537.2°C - 3.0 mph S4.8 kmh S 6.3 mph10.1 kmh 25.01 in846.9 mb 0.00 in0.0 mm 0.00 in/hr0.0 mm/hr 0.00 in0.0 mm
09:33 PM 77.9°F25.5°C -5537.2°C - 3.0 mph SE4.8 kmh SE 6.3 mph10.1 kmh 25.01 in846.9 mb 0.00 in0.0 mm 0.00 in/hr0.0 mm/hr 0.00 in0.0 mm
09:38 PM 77.5°F25.3°C -5537.2°C - 3.0 mph E4.8 kmh E 4.9 mph7.9 kmh 25.01 in846.9 mb 0.00 in0.0 mm 0.00 in/hr0.0 mm/hr 0.00 in0.0 mm
09:43 PM 76.8°F24.9°C -5537.2°C - 2.0 mph E3.2 kmh E 3.1 mph5.0 kmh 25.01 in846.9 mb 0.00 in0.0 mm 0.00 in/hr0.0 mm/hr 0.00 in0.0 mm
09:48 PM 76.1°F24.5°C -5537.2°C - 1.0 mph E1.6 kmh E 5.4 mph8.7 kmh 25.01 in846.9 mb 0.00 in0.0 mm 0.00 in/hr0.0 mm/hr 0.00 in0.0 mm
09:54 PM 76.6°F24.8°C -5537.2°C - 3.0 mph SE4.8 kmh SE 6.9 mph11.1 kmh 25.01 in846.9 mb 0.00 in0.0 mm 0.00 in/hr0.0 mm/hr 0.00 in0.0 mm
09:59 PM 76.5°F24.7°C -5537.2°C - 5.0 mph S8.0 kmh S 6.7 mph10.8 kmh 25.01 in846.9 mb 0.00 in0.0 mm 0.00 in/hr0.0 mm/hr 0.00 in0.0 mm
10:04 PM 77.4°F25.2°C -5537.2°C - 4.0 mph SE6.4 kmh SE 6.3 mph10.1 kmh 25.01 in846.9 mb 0.00 in0.0 mm 0.00 in/hr0.0 mm/hr 0.00 in0.0 mm
10:09 PM 78.4°F25.8°C -5537.2°C - 4.0 mph SE6.4 kmh SE 8.7 mph14.0 kmh 25.01 in846.9 mb 0.00 in0.0 mm 0.00 in/hr0.0 mm/hr 0.00 in0.0 mm
10:14 PM 78.3°F25.7°C -5537.2°C - 5.0 mph SE8.0 kmh SE 10.1 mph16.3 kmh 25.01 in846.9 mb 0.00 in0.0 mm 0.00 in/hr0.0 mm/hr 0.00 in0.0 mm
10:19 PM 78.1°F25.6°C -5537.2°C - 4.0 mph SE6.4 kmh SE 7.4 mph11.9 kmh 25.01 in846.9 mb 0.00 in0.0 mm 0.00 in/hr0.0 mm/hr 0.00 in0.0 mm
10:24 PM 76.6°F24.8°C -5537.2°C - 1.0 mph SE1.6 kmh SE 2.7 mph4.3 kmh 25.01 in846.9 mb 0.00 in0.0 mm 0.00 in/hr0.0 mm/hr 0.00 in0.0 mm
10:29 PM 73.4°F23.0°C -5537.2°C - 1.0 mph ESE1.6 kmh ESE 5.8 mph9.3 kmh 25.01 in846.9 mb 0.00 in0.0 mm 0.00 in/hr0.0 mm/hr 0.00 in0.0 mm
10:34 PM 72.1°F22.3°C -5537.2°C - 2.0 mph NE3.2 kmh NE 5.4 mph8.7 kmh 25.01 in846.9 mb 0.00 in0.0 mm 0.00 in/hr0.0 mm/hr 0.00 in0.0 mm
10:39 PM 72.1°F22.3°C -5537.2°C - 2.0 mph NNE3.2 kmh NNE 3.1 mph5.0 kmh 25.01 in846.9 mb 0.00 in0.0 mm 0.00 in/hr0.0 mm/hr 0.00 in0.0 mm
10:44 PM 72.0°F22.2°C -5537.2°C - 1.0 mph NNE1.6 kmh NNE 4.0 mph6.4 kmh 25.01 in846.9 mb 0.00 in0.0 mm 0.00 in/hr0.0 mm/hr 0.00 in0.0 mm
10:49 PM 70.9°F21.6°C -5537.2°C - Calm Calm -- 25.01 in846.9 mb 0.00 in0.0 mm 0.00 in/hr0.0 mm/hr 0.00 in0.0 mm
10:54 PM 70.9°F21.6°C -5537.2°C - Calm Calm 3.6 mph5.8 kmh 25.01 in846.9 mb 0.00 in0.0 mm 0.00 in/hr0.0 mm/hr 0.00 in0.0 mm
10:59 PM 71.4°F21.9°C -5537.2°C - 1.0 mph ENE1.6 kmh ENE 6.7 mph10.8 kmh 25.01 in846.9 mb 0.00 in0.0 mm 0.00 in/hr0.0 mm/hr 0.00 in0.0 mm
11:04 PM 73.2°F22.9°C -5537.2°C - 3.0 mph E4.8 kmh E 7.8 mph12.6 kmh 25.01 in846.9 mb 0.00 in0.0 mm 0.00 in/hr0.0 mm/hr 0.00 in0.0 mm
11:09 PM 74.8°F23.8°C -5537.2°C - 5.0 mph ESE8.0 kmh ESE 8.7 mph14.0 kmh 25.01 in846.9 mb 0.00 in0.0 mm 0.00 in/hr0.0 mm/hr 0.00 in0.0 mm
11:14 PM 75.4°F24.1°C -5537.2°C - 5.0 mph ESE8.0 kmh ESE 8.3 mph13.4 kmh 25.01 in846.9 mb 0.00 in0.0 mm 0.00 in/hr0.0 mm/hr 0.00 in0.0 mm
11:19 PM 75.7°F24.3°C -5537.2°C - 5.0 mph ESE8.0 kmh ESE 10.1 mph16.3 kmh 25.01 in846.9 mb 0.00 in0.0 mm 0.00 in/hr0.0 mm/hr 0.00 in0.0 mm
11:24 PM 74.8°F23.8°C -5537.2°C - 4.0 mph ESE6.4 kmh ESE 6.7 mph10.8 kmh 25.01 in846.9 mb 0.00 in0.0 mm 0.00 in/hr0.0 mm/hr 0.00 in0.0 mm
11:29 PM 73.0°F22.8°C -5537.2°C - 2.0 mph E3.2 kmh E 6.3 mph10.1 kmh 25.01 in846.9 mb 0.00 in0.0 mm 0.00 in/hr0.0 mm/hr 0.00 in0.0 mm
11:34 PM 70.3°F21.3°C -5537.2°C - 3.0 mph ESE4.8 kmh ESE 9.2 mph14.8 kmh 25.04 in848.0 mb 0.00 in0.0 mm 0.00 in/hr0.0 mm/hr 0.00 in0.0 mm
11:39 PM 66.9°F19.4°C 30.0°F-1.1°C 25% 6.0 mph S9.7 kmh S 11.0 mph17.7 kmh 25.04 in848.0 mb 0.00 in0.0 mm 0.00 in/hr0.0 mm/hr 0.00 in0.0 mm
11:44 PM 66.7°F19.3°C 34.3°F1.3°C 30% 7.0 mph S11.3 kmh S 8.7 mph14.0 kmh 25.04 in848.0 mb 0.00 in0.0 mm 0.00 in/hr0.0 mm/hr 0.00 in0.0 mm
11:49 PM 67.1°F19.5°C 32.9°F0.5°C 28% 6.0 mph S9.7 kmh S 7.8 mph12.6 kmh 25.04 in848.0 mb 0.00 in0.0 mm 0.00 in/hr0.0 mm/hr 0.00 in0.0 mm
11:54 PM 66.9°F19.4°C 32.7°F0.4°C 28% 4.0 mph S6.4 kmh S 5.8 mph9.3 kmh 25.04 in848.0 mb 0.00 in0.0 mm 0.00 in/hr0.0 mm/hr 0.00 in0.0 mm
11:59 PM 66.9°F19.4°C 31.8°F-0.1°C 27% 3.0 mph S4.8 kmh S 4.0 mph6.4 kmh 25.04 in848.0 mb 0.00 in0.0 mm 0.00 in/hr0.0 mm/hr 0.00 in0.0 mm